Aeroporto :
LOGIN :

Iscrizione | Disclaimer

   EN    FR    IT 

 










Sommario :    VFR   VFR Marginale   IFR   IFR Intensivo   IFR Molto Intensivo
Visibilità : 
Base nubi : 
>= 8 km
>= 3000ft
5 / 8 km
1000 / 3000 ft
1500m / 5 km
500 / 1000 ft
800 / 1500m
200 / 500 ft
< 800m
< 200 ft
Simboli :   Temporali  Nebbia  Neve Forte  Precipitazioni Forti  Vento > 20 kt
SIGMETs :   Varie  Temporali  Ghiacco  Turbolenza  Onda orograficha  Ceneri Vulcaniche







- Altitudine del aeroporto : 100 ft


EBDT - Schaffen

ULTIMO METAR :
  • 220025Z AUTO VRB02KT 9999 NCD 15/11 Q1011 BLU

METARs OBSOLETI :
  • 212355Z AUTO 07004KT 9999 NCD 14/11 Q1011 BLU
  • 212325Z AUTO VRB02KT 9999 BKN140/// BKN160/// 14/12 Q1012 BLU
  • 212255Z AUTO 20003KT 9999 FEW130/// SCT150/// 16/11 Q1012 BLU
  • 212225Z AUTO VRB01KT 9999 FEW130/// BKN150/// 16/11 Q1012 BLU
  • 212155Z AUTO VRB02KT 9999 SCT130/// BKN160/// 17/11 Q1012 BLU

Previsioni scadute.
Nessun NOTAM noto per questo aeroporto.



MetMap, La meteo Aeronautica in un colpo d'occhio ! - Copyright ORBIFLY Dicembre 2007 - Disclaimer

ORBIFLY MET'MAP TEAM :

Programmazione e sviluppo : Alexandra Zaïnal
Concezione e sviluppo : Baudouin d'Aumeries
Co-Programmazione e sviluppo : Marc-Olivier Méhu
Supporto tecnico e logistico : Manuel Goepfert
Aiuto per la traduzione : Arnaldo La Scala

Contatto : metmap@orbifly.com




FONTI E CREDITI :

   NOAA